createdAt,value
2022-10-05T00:01:28.893Z,92184.50
2022-10-05T00:04:16.415Z,92182.56
2022-10-05T00:06:45.092Z,92177.84
2022-10-05T00:09:23.692Z,92180.72
2022-10-05T00:11:51.219Z,92173.94
2022-10-05T00:14:29.836Z,92188.94
2022-10-05T00:16:57.146Z,92178.38
2022-10-05T00:19:29.916Z,92184.34
2022-10-05T00:22:02.957Z,92185.75
2022-10-05T00:24:30.358Z,92184.25
2022-10-05T00:27:01.102Z,92182.44
2022-10-05T00:29:27.934Z,92180.59
2022-10-05T00:31:54.719Z,92183.69
2022-10-05T00:34:21.542Z,92185.03
2022-10-05T00:36:48.748Z,92184.41
2022-10-05T00:39:18.240Z,92185.81
2022-10-05T00:41:50.903Z,92182.88
2022-10-05T00:44:37.471Z,92187.19
2022-10-05T00:47:07.472Z,92187.63
2022-10-05T00:49:47.807Z,92187.06
2022-10-05T00:52:33.338Z,92197.88
2022-10-05T00:55:15.969Z,92197.13
2022-10-05T00:58:01.626Z,92199.31
2022-10-05T01:00:28.694Z,92205.56
2022-10-05T01:03:06.916Z,92202.97
2022-10-05T01:05:56.869Z,92207.53
2022-10-05T01:08:26.460Z,92210.75
2022-10-05T01:11:02.114Z,92212.13
2022-10-05T01:13:59.575Z,92214.44
2022-10-05T01:16:47.463Z,92208.75
2022-10-05T01:19:35.583Z,92213.81
2022-10-05T01:22:28.300Z,92215.47
2022-10-05T01:25:19.196Z,92205.53
2022-10-05T01:28:11.820Z,92205.69
2022-10-05T01:30:48.288Z,92202.34
2022-10-05T01:33:42.198Z,92201.13
2022-10-05T01:36:46.670Z,92208.16
2022-10-05T01:39:32.100Z,92201.72
2022-10-05T01:42:18.855Z,92207.81
2022-10-05T01:45:01.927Z,92207.19
2022-10-05T01:47:40.856Z,92197.72
2022-10-05T01:50:20.462Z,92207.81
2022-10-05T01:53:15.115Z,92207.53
2022-10-05T01:55:47.922Z,92202.00
2022-10-05T01:58:14.650Z,92199.69
2022-10-05T02:00:49.113Z,92190.03
2022-10-05T02:03:24.844Z,92193.75
2022-10-05T02:06:23.194Z,92189.94
2022-10-05T02:08:57.182Z,92187.94
2022-10-05T02:11:24.001Z,92192.84
2022-10-05T02:14:00.809Z,92190.53
2022-10-05T02:16:36.470Z,92189.91
2022-10-05T02:19:33.304Z,92205.06
2022-10-05T02:22:07.443Z,92209.94
2022-10-05T02:24:42.000Z,92198.00
2022-10-05T02:27:11.019Z,92212.06
2022-10-05T02:29:43.118Z,92202.88
2022-10-05T02:32:24.805Z,92199.94
2022-10-05T02:34:51.677Z,92209.25
2022-10-05T02:37:39.973Z,92204.31
2022-10-05T02:40:15.977Z,92212.94
2022-10-05T02:43:01.893Z,92211.72
2022-10-05T02:46:10.682Z,92213.91
2022-10-05T02:48:48.004Z,92214.50
2022-10-05T02:51:42.888Z,92218.38
2022-10-05T02:54:15.803Z,92221.84
2022-10-05T02:57:00.729Z,92224.00
2022-10-05T02:59:34.494Z,92217.22
2022-10-05T03:02:36.487Z,92196.16
2022-10-05T03:05:20.269Z,92231.31
2022-10-05T03:08:04.337Z,92222.44
2022-10-05T03:10:43.484Z,92238.50
2022-10-05T03:13:25.593Z,92233.16
2022-10-05T03:16:29.995Z,92241.31
2022-10-05T03:19:20.720Z,92228.91
2022-10-05T03:22:20.210Z,92231.53
2022-10-05T03:25:14.980Z,92244.41
2022-10-05T03:27:44.688Z,92243.03
2022-10-05T03:30:21.898Z,92244.84
2022-10-05T03:33:16.245Z,92247.31
2022-10-05T03:35:43.023Z,92252.50
2022-10-05T03:38:31.682Z,92244.56
2022-10-05T03:41:17.497Z,92237.03
2022-10-05T03:44:21.940Z,92234.59
2022-10-05T03:47:09.033Z,92232.31
2022-10-05T03:50:17.756Z,92233.69
2022-10-05T03:52:50.857Z,92234.44
2022-10-05T03:56:05.348Z,92249.91
2022-10-05T03:58:41.302Z,92252.53
2022-10-05T04:01:14.737Z,92255.44
2022-10-05T04:03:49.687Z,92259.53
2022-10-05T04:06:47.858Z,92265.19
2022-10-05T04:09:25.263Z,92264.91
2022-10-05T04:12:11.237Z,92265.06
2022-10-05T04:14:44.936Z,92256.06
2022-10-05T04:17:23.053Z,92255.44
2022-10-05T04:20:17.951Z,92260.47
2022-10-05T04:22:57.135Z,92262.63
2022-10-05T04:25:37.217Z,92266.41
2022-10-05T04:28:16.371Z,92272.72
2022-10-05T04:30:47.928Z,92255.75
2022-10-05T04:33:16.099Z,92269.97
2022-10-05T04:36:07.752Z,92280.19
2022-10-05T04:38:43.594Z,92279.00
2022-10-05T04:41:40.826Z,92282.63
2022-10-05T04:44:33.468Z,92291.50
2022-10-05T04:47:15.366Z,92305.28
2022-10-05T04:49:44.781Z,92305.00
2022-10-05T04:52:28.362Z,92309.97
2022-10-05T04:55:13.510Z,92301.28
2022-10-05T04:57:50.666Z,92313.84
2022-10-05T05:00:22.743Z,92322.91
2022-10-05T05:02:58.404Z,92318.31
2022-10-05T05:05:34.815Z,92320.63
2022-10-05T05:08:21.395Z,92313.75
2022-10-05T05:11:06.819Z,92329.34
2022-10-05T05:13:52.317Z,92336.84
2022-10-05T05:16:28.236Z,92334.66
2022-10-05T05:19:13.258Z,92336.69
2022-10-05T05:21:53.099Z,92333.94
2022-10-05T05:24:23.968Z,92333.34
2022-10-05T05:27:36.316Z,92331.03
2022-10-05T05:30:40.341Z,92333.31
2022-10-05T05:33:07.270Z,92346.78
2022-10-05T05:35:40.090Z,92346.94
2022-10-05T05:38:33.107Z,92338.22
2022-10-05T05:41:02.686Z,92344.47
2022-10-05T05:44:15.623Z,92339.56
2022-10-05T05:47:09.607Z,92332.03
2022-10-05T05:50:06.719Z,92338.44
2022-10-05T05:52:51.748Z,92351.38
2022-10-05T05:55:30.690Z,92321.50
2022-10-05T05:58:10.120Z,92347.22
2022-10-05T06:01:30.560Z,92346.09
2022-10-05T06:04:04.024Z,92360.19
2022-10-05T06:06:32.594Z,92357.94
2022-10-05T06:09:03.786Z,92358.94
2022-10-05T06:11:53.859Z,92354.75
2022-10-05T06:14:43.571Z,92349.75
2022-10-05T06:17:19.207Z,92350.16
2022-10-05T06:19:48.820Z,92349.72
2022-10-05T06:22:21.238Z,92358.00
2022-10-05T06:25:23.339Z,92343.78
2022-10-05T06:28:02.036Z,92345.56
2022-10-05T06:31:07.140Z,92350.97
2022-10-05T06:33:50.187Z,92350.53
2022-10-05T06:36:43.684Z,92349.84
2022-10-05T06:39:13.673Z,92351.28
2022-10-05T06:42:02.382Z,92349.00
2022-10-05T06:44:38.022Z,92348.41
2022-10-05T06:47:27.908Z,92352.81
2022-10-05T06:50:17.363Z,92341.13
2022-10-05T06:52:58.033Z,92347.56
2022-10-05T06:56:02.394Z,92341.50
2022-10-05T06:59:01.160Z,92337.88
2022-10-05T07:02:00.009Z,92353.78
2022-10-05T07:04:38.904Z,92349.31
2022-10-05T07:07:53.686Z,92343.38
2022-10-05T07:10:35.278Z,92351.63
2022-10-05T07:13:41.026Z,92350.25
2022-10-05T07:16:32.272Z,92337.09
2022-10-05T07:19:37.629Z,92343.09
2022-10-05T07:22:35.202Z,92331.28
2022-10-05T07:25:13.576Z,92336.50
2022-10-05T07:27:51.829Z,92332.16
2022-10-05T07:30:19.165Z,92334.56
2022-10-05T07:32:50.749Z,92325.63
2022-10-05T07:35:50.871Z,92326.75
2022-10-05T07:38:39.075Z,92323.69
2022-10-05T07:41:07.574Z,92329.56
2022-10-05T07:44:02.760Z,92332.06
2022-10-05T07:47:23.960Z,92322.53
2022-10-05T07:49:56.631Z,92324.94
2022-10-05T07:52:34.983Z,92317.06
2022-10-05T07:55:32.271Z,92327.28
2022-10-05T07:58:23.719Z,92327.69
2022-10-05T08:00:56.330Z,92317.41
2022-10-05T08:03:39.251Z,92319.47
2022-10-05T08:06:11.523Z,92315.69
2022-10-05T08:08:44.264Z,92318.34
2022-10-05T08:11:19.030Z,92308.44
2022-10-05T08:13:52.985Z,92301.19
2022-10-05T08:16:19.976Z,92295.72
2022-10-05T08:19:06.156Z,92294.63
2022-10-05T08:21:48.531Z,92298.09
2022-10-05T08:25:00.517Z,92302.53
2022-10-05T08:27:42.087Z,92303.34
2022-10-05T08:30:15.804Z,92308.88
2022-10-05T08:32:52.548Z,92320.53
2022-10-05T08:35:26.959Z,92319.84
2022-10-05T08:37:54.516Z,92313.50
2022-10-05T08:40:57.884Z,92313.38
2022-10-05T08:43:45.771Z,92303.34
2022-10-05T08:46:34.221Z,92322.56
2022-10-05T08:49:21.673Z,92323.63
2022-10-05T08:52:03.292Z,92324.56
2022-10-05T08:54:38.923Z,92323.13
2022-10-05T08:57:14.612Z,92325.41
2022-10-05T08:59:44.036Z,92319.06
2022-10-05T09:02:37.919Z,92318.06
2022-10-05T09:05:15.616Z,92327.00
2022-10-05T09:08:07.213Z,92329.28
2022-10-05T09:11:18.438Z,92327.81
2022-10-05T09:14:14.469Z,92322.31
2022-10-05T09:16:47.046Z,92325.75
2022-10-05T09:19:28.546Z,92329.78
2022-10-05T09:22:05.141Z,92315.25
2022-10-05T09:24:57.280Z,92322.81
2022-10-05T09:27:51.375Z,92323.50
2022-10-05T09:30:27.069Z,92316.22
2022-10-05T09:33:02.876Z,92320.75
2022-10-05T09:35:38.791Z,92328.25
2022-10-05T09:38:11.135Z,92325.28
2022-10-05T09:41:00.146Z,92333.13
2022-10-05T09:43:48.551Z,92322.47
2022-10-05T09:46:34.139Z,92324.78
2022-10-05T09:49:31.627Z,92332.59
2022-10-05T09:52:01.538Z,92322.50
2022-10-05T09:54:46.766Z,92318.00
2022-10-05T09:57:16.456Z,92323.28
2022-10-05T09:59:43.018Z,92332.91
2022-10-05T10:02:18.870Z,92323.09
2022-10-05T10:05:22.545Z,92326.31
2022-10-05T10:07:58.505Z,92332.75
2022-10-05T10:10:34.346Z,92331.34
2022-10-05T10:13:19.804Z,92341.31
2022-10-05T10:16:02.201Z,92338.41
2022-10-05T10:18:46.915Z,92341.25
2022-10-05T10:21:39.596Z,92335.22
2022-10-05T10:24:14.205Z,92337.47
2022-10-05T10:27:02.754Z,92322.13
2022-10-05T10:29:48.259Z,92318.50
2022-10-05T10:32:36.660Z,92322.66
2022-10-05T10:35:08.113Z,92292.53
2022-10-05T10:38:00.524Z,92314.81
2022-10-05T10:40:39.140Z,92317.69
2022-10-05T10:43:39.325Z,92323.63
2022-10-05T10:46:20.864Z,92312.66
2022-10-05T10:48:47.561Z,92314.00
2022-10-05T10:51:35.350Z,92314.75
2022-10-05T10:54:03.610Z,92306.34
2022-10-05T10:57:04.517Z,92313.56
2022-10-05T11:00:09.505Z,92300.75
2022-10-05T11:02:59.955Z,92304.09
2022-10-05T11:05:48.813Z,92314.13
2022-10-05T11:08:46.563Z,92305.81
2022-10-05T11:11:40.495Z,92299.22
2022-10-05T11:14:29.885Z,92296.31
2022-10-05T11:17:05.613Z,92300.63
2022-10-05T11:19:46.376Z,92297.09
2022-10-05T11:22:54.935Z,92304.84
2022-10-05T11:25:24.687Z,92307.16
2022-10-05T11:27:54.278Z,92309.06
2022-10-05T11:31:05.920Z,92309.91
2022-10-05T11:34:00.379Z,92307.41
2022-10-05T11:36:39.242Z,92304.75
2022-10-05T11:39:42.916Z,92305.97
2022-10-05T11:42:43.301Z,92311.84
2022-10-05T11:45:42.438Z,92307.59
2022-10-05T11:48:50.846Z,92304.31
2022-10-05T11:51:42.447Z,92302.69
2022-10-05T11:54:23.603Z,92302.63
2022-10-05T11:57:13.255Z,92305.09
2022-10-05T11:59:49.439Z,92302.66
2022-10-05T12:02:43.050Z,92296.88
2022-10-05T12:05:21.366Z,92299.25
2022-10-05T12:08:06.129Z,92298.38
2022-10-05T12:10:54.002Z,92295.88
2022-10-05T12:13:51.258Z,92293.03
2022-10-05T12:16:18.034Z,92295.31
2022-10-05T12:18:53.602Z,92296.78
2022-10-05T12:21:33.906Z,92289.25
2022-10-05T12:24:37.362Z,92293.41
2022-10-05T12:27:27.197Z,92291.16
2022-10-05T12:30:15.941Z,92285.78
2022-10-05T12:32:55.869Z,92282.25
2022-10-05T12:35:56.014Z,92280.28
2022-10-05T12:38:44.263Z,92281.78
2022-10-05T12:41:36.090Z,92293.28
2022-10-05T12:44:25.103Z,92289.97
2022-10-05T12:47:10.207Z,92295.28
2022-10-05T12:50:03.269Z,92293.00
2022-10-05T12:52:48.054Z,92288.47
2022-10-05T12:55:35.930Z,92292.25
2022-10-05T12:58:20.965Z,92288.44
2022-10-05T13:01:04.036Z,92285.06
2022-10-05T13:03:37.664Z,92280.81
2022-10-05T13:06:11.084Z,92279.72
2022-10-05T13:08:43.596Z,92283.13
2022-10-05T13:11:14.195Z,92276.31
2022-10-05T13:13:59.307Z,92274.78
2022-10-05T13:16:26.046Z,92271.81
2022-10-05T13:19:11.467Z,92268.59
2022-10-05T13:21:38.679Z,92271.13
2022-10-05T13:24:20.687Z,92265.22
2022-10-05T13:26:55.169Z,92261.44
2022-10-05T13:30:15.768Z,92263.06
2022-10-05T13:32:48.283Z,92267.06
2022-10-05T13:35:47.410Z,92268.63
2022-10-05T13:38:34.319Z,92267.84
2022-10-05T13:41:25.958Z,92265.69
2022-10-05T13:44:03.567Z,92276.25
2022-10-05T13:46:49.965Z,92270.19
2022-10-05T13:49:31.923Z,92284.59
2022-10-05T13:52:01.702Z,92277.75
2022-10-05T13:54:45.767Z,92283.47
2022-10-05T13:57:31.187Z,92276.72
2022-10-05T13:59:59.321Z,92272.50
2022-10-05T14:02:39.386Z,92276.38
2022-10-05T14:05:23.928Z,92274.84
2022-10-05T14:08:02.899Z,92278.13
2022-10-05T14:10:38.356Z,92278.44
2022-10-05T14:13:42.660Z,92279.59
2022-10-05T14:16:25.051Z,92281.47
2022-10-05T14:18:54.895Z,92280.03
2022-10-05T14:21:27.287Z,92278.84
2022-10-05T14:23:54.154Z,92268.72
2022-10-05T14:26:31.609Z,92275.56
2022-10-05T14:29:18.286Z,92280.91
2022-10-05T14:32:11.870Z,92265.03
2022-10-05T14:34:45.059Z,92283.22
2022-10-05T14:37:21.056Z,92283.94
2022-10-05T14:39:49.989Z,92283.94
2022-10-05T14:42:29.171Z,92280.19
2022-10-05T14:45:17.606Z,92277.91
2022-10-05T14:48:02.694Z,92286.22
2022-10-05T14:50:31.348Z,92288.50
2022-10-05T14:53:21.294Z,92284.69
2022-10-05T14:56:08.922Z,92285.78
2022-10-05T14:58:59.786Z,92283.16
2022-10-05T15:01:32.367Z,92289.13
2022-10-05T15:04:02.040Z,92298.94
2022-10-05T15:07:13.776Z,92301.94
2022-10-05T15:09:44.399Z,92303.41
2022-10-05T15:12:22.432Z,92304.13
2022-10-05T15:14:52.046Z,92298.75
2022-10-05T15:17:29.003Z,92310.00
2022-10-05T15:20:05.229Z,92308.09
2022-10-05T15:22:48.998Z,92309.84
2022-10-05T15:25:17.206Z,92299.28
2022-10-05T15:28:07.360Z,92311.72
2022-10-05T15:30:40.090Z,92314.75
2022-10-05T15:33:27.705Z,92319.56
2022-10-05T15:36:11.989Z,92317.56
2022-10-05T15:39:02.686Z,92322.47
2022-10-05T15:41:45.044Z,92326.19
2022-10-05T15:44:38.662Z,92326.13
2022-10-05T15:47:09.026Z,92328.41
2022-10-05T15:49:51.360Z,92330.91
2022-10-05T15:52:17.985Z,92334.72
2022-10-05T15:55:29.116Z,92326.66
2022-10-05T15:58:01.933Z,92341.69
2022-10-05T16:00:30.304Z,92349.25
2022-10-05T16:02:59.956Z,92355.06
2022-10-05T16:06:02.668Z,92351.22
2022-10-05T16:08:56.460Z,92359.63
2022-10-05T16:11:23.042Z,92369.19
2022-10-05T16:14:00.077Z,92372.22
2022-10-05T16:16:42.128Z,92365.63
2022-10-05T16:19:24.978Z,92376.97
2022-10-05T16:22:14.157Z,92383.38
2022-10-05T16:25:14.233Z,92384.78
2022-10-05T16:27:49.944Z,92391.53
2022-10-05T16:30:21.015Z,92397.84
2022-10-05T16:33:13.917Z,92396.53
2022-10-05T16:36:09.049Z,92410.25
2022-10-05T16:38:41.118Z,92423.56
2022-10-05T16:41:24.074Z,92420.66
2022-10-05T16:43:57.989Z,92422.31
2022-10-05T16:46:45.812Z,92418.25
2022-10-05T16:49:27.021Z,92426.25
2022-10-05T16:52:01.904Z,92425.59
2022-10-05T16:54:33.989Z,92431.50
2022-10-05T16:57:12.225Z,92437.81
2022-10-05T17:00:22.197Z,92440.44
2022-10-05T17:02:58.047Z,92430.66
2022-10-05T17:05:49.260Z,92440.00
2022-10-05T17:08:49.380Z,92440.41
2022-10-05T17:11:34.861Z,92443.53
2022-10-05T17:14:01.529Z,92458.09
2022-10-05T17:16:54.511Z,92405.72
2022-10-05T17:19:47.854Z,92455.75
2022-10-05T17:22:26.448Z,92460.59
2022-10-05T17:25:19.241Z,92465.84
2022-10-05T17:28:15.116Z,92469.66
2022-10-05T17:30:54.252Z,92464.66
2022-10-05T17:33:27.624Z,92469.41
2022-10-05T17:35:54.404Z,92471.59
2022-10-05T17:38:46.934Z,92472.03
2022-10-05T17:41:29.590Z,92477.47
2022-10-05T17:44:16.191Z,92482.59
2022-10-05T17:46:46.270Z,92472.25
2022-10-05T17:49:37.976Z,92473.31
2022-10-05T17:52:45.995Z,92486.28
2022-10-05T17:55:34.568Z,92484.56
2022-10-05T17:58:41.944Z,92494.66
2022-10-05T18:01:24.877Z,92500.69
2022-10-05T18:03:51.970Z,92497.19
2022-10-05T18:06:38.038Z,92501.47
2022-10-05T18:09:23.129Z,92495.44
2022-10-05T18:11:55.905Z,92498.59
2022-10-05T18:14:27.347Z,92495.78
2022-10-05T18:17:11.775Z,92491.44
2022-10-05T18:19:39.608Z,92490.09
2022-10-05T18:22:18.191Z,92495.47
2022-10-05T18:25:05.996Z,92494.38
2022-10-05T18:28:05.483Z,92495.81
2022-10-05T18:31:09.005Z,92497.91
2022-10-05T18:34:00.305Z,92503.03
2022-10-05T18:36:48.973Z,92503.13
2022-10-05T18:39:40.140Z,92494.94
2022-10-05T18:42:14.185Z,92504.69
2022-10-05T18:44:46.378Z,92502.50
2022-10-05T18:47:17.335Z,92505.41
2022-10-05T18:49:53.181Z,92507.41
2022-10-05T18:52:52.316Z,92506.31
2022-10-05T18:55:35.433Z,92502.63
2022-10-05T18:58:02.074Z,92500.66
2022-10-05T19:00:52.375Z,92508.78
2022-10-05T19:03:29.415Z,92502.78
2022-10-05T19:06:38.892Z,92512.72
2022-10-05T19:09:34.918Z,92517.31
2022-10-05T19:12:11.975Z,92520.25
2022-10-05T19:15:06.727Z,92521.56
2022-10-05T19:17:47.872Z,92520.84
2022-10-05T19:20:20.931Z,92524.13
2022-10-05T19:23:16.684Z,92523.03
2022-10-05T19:26:10.113Z,92511.31
2022-10-05T19:29:07.891Z,92525.22
2022-10-05T19:31:50.247Z,92531.44
2022-10-05T19:34:31.644Z,92530.06
2022-10-05T19:37:22.963Z,92539.56
2022-10-05T19:39:58.677Z,92539.19
2022-10-05T19:42:53.204Z,92535.81
2022-10-05T19:45:33.445Z,92541.97
2022-10-05T19:48:08.997Z,92541.06
2022-10-05T19:50:38.496Z,92542.06
2022-10-05T19:53:11.973Z,92551.41
2022-10-05T19:55:47.136Z,92545.41
2022-10-05T19:58:22.893Z,92559.19
2022-10-05T20:00:55.677Z,92561.22
2022-10-05T20:03:29.238Z,92563.72
2022-10-05T20:06:04.214Z,92566.53
2022-10-05T20:08:40.098Z,92563.50
2022-10-05T20:11:18.515Z,92567.75
2022-10-05T20:13:48.193Z,92563.88
2022-10-05T20:16:38.545Z,92566.53
2022-10-05T20:19:45.467Z,92570.06
2022-10-05T20:22:28.908Z,92575.56
2022-10-05T20:24:58.887Z,92576.94
2022-10-05T20:27:41.339Z,92568.53
2022-10-05T20:30:10.665Z,92576.94
2022-10-05T20:32:37.344Z,92573.50
2022-10-05T20:35:06.784Z,92571.38
2022-10-05T20:37:33.705Z,92573.97
2022-10-05T20:40:02.964Z,92563.34
2022-10-05T20:42:29.821Z,92573.75
2022-10-05T20:44:57.893Z,92575.59
2022-10-05T20:47:25.217Z,92571.47
2022-10-05T20:49:53.427Z,92574.00
2022-10-05T20:52:20.851Z,92580.13
2022-10-05T20:54:48.047Z,92576.31
2022-10-05T20:57:14.789Z,92557.44
2022-10-05T20:59:41.453Z,92566.66
2022-10-05T21:02:08.061Z,92574.91
2022-10-05T21:04:40.210Z,92567.06
2022-10-05T21:07:07.490Z,92575.50
2022-10-05T21:09:34.263Z,92569.81
2022-10-05T21:12:00.861Z,92568.75
2022-10-05T21:14:30.601Z,92567.25
2022-10-05T21:16:57.272Z,92556.97
2022-10-05T21:19:24.132Z,92566.78
2022-10-05T21:21:50.795Z,92558.81
2022-10-05T21:24:17.532Z,92572.31
2022-10-05T21:26:45.250Z,92570.50
2022-10-05T21:29:13.165Z,92569.88
2022-10-05T21:31:40.252Z,92578.47
2022-10-05T21:34:07.314Z,92583.06
2022-10-05T21:36:34.680Z,92573.69
2022-10-05T21:39:01.557Z,92575.22
2022-10-05T21:41:28.224Z,92555.44
2022-10-05T21:43:54.935Z,92577.38
2022-10-05T21:46:26.425Z,92573.09
2022-10-05T21:48:54.570Z,92579.97
2022-10-05T21:51:24.099Z,92575.34
2022-10-05T21:53:58.170Z,92575.97
2022-10-05T21:56:29.195Z,92574.28
2022-10-05T21:58:56.060Z,92566.16
2022-10-05T22:01:23.212Z,92568.94
2022-10-05T22:03:50.102Z,92571.38
2022-10-05T22:06:16.762Z,92569.56
2022-10-05T22:08:43.409Z,92568.00
2022-10-05T22:11:14.492Z,92566.94
2022-10-05T22:13:46.676Z,92567.69
2022-10-05T22:16:15.243Z,92564.34
2022-10-05T22:18:42.691Z,92566.78
2022-10-05T22:21:14.355Z,92562.31
2022-10-05T22:23:42.697Z,92563.31
2022-10-05T22:26:12.968Z,92561.97
2022-10-05T22:28:40.750Z,92566.19
2022-10-05T22:31:09.542Z,92551.41
2022-10-05T22:33:37.220Z,92556.63
2022-10-05T22:36:05.639Z,92556.34
2022-10-05T22:38:32.967Z,92558.97
2022-10-05T22:40:59.870Z,92549.75
2022-10-05T22:43:29.235Z,92557.09
2022-10-05T22:45:56.552Z,92556.63
2022-10-05T22:48:23.685Z,92559.19
2022-10-05T22:50:50.316Z,92568.38
2022-10-05T22:53:17.033Z,92574.03
2022-10-05T22:55:43.690Z,92574.19
2022-10-05T22:58:10.371Z,92569.03
2022-10-05T23:00:57.163Z,92572.78
2022-10-05T23:03:23.692Z,92574.03
2022-10-05T23:05:56.768Z,92545.75
2022-10-05T23:08:23.394Z,92569.38
2022-10-05T23:10:50.071Z,92566.34
2022-10-05T23:13:16.813Z,92559.97
2022-10-05T23:15:44.042Z,92558.44
2022-10-05T23:18:12.204Z,92555.84
2022-10-05T23:20:40.274Z,92553.25
2022-10-05T23:23:06.932Z,92559.31
2022-10-05T23:25:33.637Z,92555.44
2022-10-05T23:28:02.724Z,92558.53
2022-10-05T23:30:29.602Z,92556.41
2022-10-05T23:32:56.403Z,92551.03
2022-10-05T23:35:23.085Z,92555.16
2022-10-05T23:37:49.775Z,92558.22
2022-10-05T23:40:16.720Z,92556.19
2022-10-05T23:42:43.350Z,92554.28
2022-10-05T23:45:11.910Z,92554.75
2022-10-05T23:47:40.264Z,92555.31
2022-10-05T23:50:08.705Z,92546.31
2022-10-05T23:52:36.408Z,92547.56
2022-10-05T23:55:04.543Z,92547.38
2022-10-05T23:57:31.617Z,92548.13
2022-10-05T23:59:58.375Z,92553.78
